New Lancaster, Indiana
Current Conditions -  °F | °C
As of 8:55 AM on Saturday 25 Oct 2014 (Local Time) from KMZZ Reporting Station
Haze Haze  
Wind Chill: 54°   Ceiling: Unl
Heat Index: 54°   Visibility: 5mi
Dew Point: 50°   Wind: 8mph
Humidity: 87%   Direction: 240°WSW
Pressure: 29.95"   Gusts: NA
Location:  40.3067°N, 85.834°W
Report Text: KMZZ 251255Z AUTO 24007KT 5SM BR SCT024 12/10 A2995 RMK AO2 T01210100
Loading
Personal Weather Stations






























Interactive Weather Map
Tropical Storm Tracking
New forecast layout! Learn more

10-Day Weather Forecast

Advertisements
Track Severe Weather on mobile